createdAt,value
2022-10-18T15:48:28.207Z,88
2022-10-18T15:58:12.548Z,70
2022-10-18T16:08:13.177Z,76
2022-10-18T16:18:13.437Z,78
2022-10-18T16:28:14.441Z,82
2022-10-18T16:48:15.670Z,86
2022-10-18T16:58:16.570Z,89
2022-10-18T17:08:18.144Z,91
2022-10-18T17:18:17.141Z,92
2022-10-18T17:28:17.730Z,94
2022-10-18T17:38:17.867Z,94
2022-10-18T17:48:18.093Z,95
2022-10-18T17:58:18.204Z,96
2022-10-18T18:08:18.756Z,97
2022-10-18T18:18:19.012Z,98
2022-10-18T18:28:19.245Z,98
2022-10-18T18:38:19.601Z,99
2022-10-18T18:48:20.241Z,99
2022-10-18T18:58:21.235Z,100
2022-10-18T19:18:23.900Z,100
2022-10-18T19:48:25.025Z,100
2022-10-18T20:48:28.061Z,100
2022-10-18T20:58:28.653Z,100
2022-10-18T21:08:29.191Z,100
2022-10-18T21:28:31.008Z,100
2022-10-18T21:38:31.975Z,100
2022-10-18T21:48:32.215Z,100
2022-10-18T21:58:32.766Z,100
2022-10-18T22:08:33.579Z,100
2022-10-18T22:18:33.908Z,100
2022-10-18T22:28:34.541Z,100
2022-10-18T22:38:35.478Z,100
2022-10-18T22:48:36.396Z,100
2022-10-18T22:58:36.682Z,100
2022-10-18T23:08:37.062Z,100
2022-10-18T23:18:37.311Z,100
2022-10-18T23:28:37.899Z,100
2022-10-18T23:38:38.592Z,100
2022-10-18T23:48:39.612Z,100
2022-10-18T23:58:40.099Z,100
